sensor_id;sensor_type;location;lat;lon;timestamp;P1;durP1;ratioP1;P2;durP2;ratioP2
54458;SDS011;40368;49.350;8.152;2023-12-04T00:00:56;207;;;329;;
54458;SDS011;40368;49.350;8.152;2023-12-04T00:01:56;209;;;320;;
54458;SDS011;40368;49.350;8.152;2023-12-04T00:02:56;217;;;333;;
54458;SDS011;40368;49.350;8.152;2023-12-04T00:03:57;207;;;317;;
54458;SDS011;40368;49.350;8.152;2023-12-04T00:04:56;199;;;311;;
54458;SDS011;40368;49.350;8.152;2023-12-04T00:05:56;206;;;314;;
54458;SDS011;40368;49.350;8.152;2023-12-04T00:06:56;206;;;327;;
54458;SDS011;40368;49.350;8.152;2023-12-04T00:07:56;198;;;304;;
54458;SDS011;40368;49.350;8.152;2023-12-04T00:08:56;190;;;289;;
54458;SDS011;40368;49.350;8.152;2023-12-04T00:09:57;198;;;290;;
54458;SDS011;40368;49.350;8.152;2023-12-04T00:10:59;191;;;272;;
54458;SDS011;40368;49.350;8.152;2023-12-04T00:11:56;197;;;296;;
54458;SDS011;40368;49.350;8.152;2023-12-04T00:12:57;195;;;296;;
54458;SDS011;40368;49.350;8.152;2023-12-04T00:13:56;200;;;314;;
54458;SDS011;40368;49.350;8.152;2023-12-04T00:14:56;195;;;321;;
54458;SDS011;40368;49.350;8.152;2023-12-04T00:15:59;190;;;305;;
54458;SDS011;40368;49.350;8.152;2023-12-04T00:16:59;198;;;301;;
54458;SDS011;40368;49.350;8.152;2023-12-04T00:17:56;185;;;299;;
54458;SDS011;40368;49.350;8.152;2023-12-04T00:18:56;197;;;308;;
54458;SDS011;40368;49.350;8.152;2023-12-04T00:19:59;196;;;292;;
54458;SDS011;40368;49.350;8.152;2023-12-04T00:20:56;200;;;322;;
54458;SDS011;40368;49.350;8.152;2023-12-04T00:21:56;203;;;312;;
54458;SDS011;40368;49.350;8.152;2023-12-04T00:22:56;200;;;330;;
54458;SDS011;40368;49.350;8.152;2023-12-04T00:23:56;190;;;283;;
54458;SDS011;40368;49.350;8.152;2023-12-04T00:24:56;179;;;274;;
54458;SDS011;40368;49.350;8.152;2023-12-04T00:25:57;194;;;308;;
54458;SDS011;40368;49.350;8.152;2023-12-04T00:27:00;197;;;300;;
54458;SDS011;40368;49.350;8.152;2023-12-04T00:27:58;185;;;280;;
54458;SDS011;40368;49.350;8.152;2023-12-04T00:28:58;184;;;285;;
54458;SDS011;40368;49.350;8.152;2023-12-04T00:29:57;152;;;258;;
54458;SDS011;40368;49.350;8.152;2023-12-04T00:30:57;191;;;307;;
54458;SDS011;40368;49.350;8.152;2023-12-04T00:31:58;191;;;293;;
54458;SDS011;40368;49.350;8.152;2023-12-04T00:33:00;182;;;281;;
54458;SDS011;40368;49.350;8.152;2023-12-04T00:33:57;183;;;279;;
54458;SDS011;40368;49.350;8.152;2023-12-04T00:34:58;167;;;265;;
54458;SDS011;40368;49.350;8.152;2023-12-04T00:35:58;187;;;278;;
54458;SDS011;40368;49.350;8.152;2023-12-04T00:36:57;184;;;280;;
54458;SDS011;40368;49.350;8.152;2023-12-04T00:37:58;184;;;287;;
54458;SDS011;40368;49.350;8.152;2023-12-04T00:38:57;189;;;286;;
54458;SDS011;40368;49.350;8.152;2023-12-04T00:39:58;175;;;266;;
54458;SDS011;40368;49.350;8.152;2023-12-04T00:41:00;189;;;288;;
54458;SDS011;40368;49.350;8.152;2023-12-04T00:41:57;190;;;300;;
54458;SDS011;40368;49.350;8.152;2023-12-04T00:42:58;183;;;290;;
54458;SDS011;40368;49.350;8.152;2023-12-04T00:43:59;180;;;280;;
54458;SDS011;40368;49.350;8.152;2023-12-04T00:44:58;187;;;295;;
54458;SDS011;40368;49.350;8.152;2023-12-04T00:46:00;178;;;274;;
54458;SDS011;40368;49.350;8.152;2023-12-04T00:46:57;186;;;290;;
54458;SDS011;40368;49.350;8.152;2023-12-04T00:47:58;184;;;286;;
54458;SDS011;40368;49.350;8.152;2023-12-04T00:48:59;179;;;283;;
54458;SDS011;40368;49.350;8.152;2023-12-04T00:49:57;178;;;280;;
54458;SDS011;40368;49.350;8.152;2023-12-04T00:50:58;176;;;268;;
54458;SDS011;40368;49.350;8.152;2023-12-04T00:51:58;181;;;284;;
54458;SDS011;40368;49.350;8.152;2023-12-04T00:52:58;182;;;290;;
54458;SDS011;40368;49.350;8.152;2023-12-04T00:53:59;178;;;263;;
54458;SDS011;40368;49.350;8.152;2023-12-04T00:54:57;181;;;276;;
54458;SDS011;40368;49.350;8.152;2023-12-04T00:55:58;174;;;275;;
54458;SDS011;40368;49.350;8.152;2023-12-04T00:56:59;178;;;268;;
54458;SDS011;40368;49.350;8.152;2023-12-04T00:57:59;182;;;277;;
54458;SDS011;40368;49.350;8.152;2023-12-04T00:58:57;177;;;266;;
54458;SDS011;40368;49.350;8.152;2023-12-04T00:59:56;180;;;271;;
54458;SDS011;40368;49.350;8.152;2023-12-04T01:00:59;169;;;265;;
54458;SDS011;40368;49.350;8.152;2023-12-04T01:01:57;173;;;270;;
54458;SDS011;40368;49.350;8.152;2023-12-04T01:02:59;178;;;278;;
54458;SDS011;40368;49.350;8.152;2023-12-04T01:03:59;177;;;275;;
54458;SDS011;40368;49.350;8.152;2023-12-04T01:04:57;177;;;262;;
54458;SDS011;40368;49.350;8.152;2023-12-04T01:05:58;189;;;292;;
54458;SDS011;40368;49.350;8.152;2023-12-04T01:06:59;189;;;285;;
54458;SDS011;40368;49.350;8.152;2023-12-04T01:07:57;177;;;271;;
54458;SDS011;40368;49.350;8.152;2023-12-04T01:08:59;187;;;283;;
54458;SDS011;40368;49.350;8.152;2023-12-04T01:09:58;169;;;260;;
54458;SDS011;40368;49.350;8.152;2023-12-04T01:10:57;185;;;293;;
54458;SDS011;40368;49.350;8.152;2023-12-04T01:11:59;180;;;271;;
54458;SDS011;40368;49.350;8.152;2023-12-04T01:12:58;188;;;285;;
54458;SDS011;40368;49.350;8.152;2023-12-04T01:13:57;178;;;263;;
54458;SDS011;40368;49.350;8.152;2023-12-04T01:14:58;170;;;278;;
54458;SDS011;40368;49.350;8.152;2023-12-04T01:15:59;178;;;283;;
54458;SDS011;40368;49.350;8.152;2023-12-04T01:16:58;176;;;280;;
54458;SDS011;40368;49.350;8.152;2023-12-04T01:17:58;175;;;272;;
54458;SDS011;40368;49.350;8.152;2023-12-04T01:18:58;177;;;277;;
54458;SDS011;40368;49.350;8.152;2023-12-04T01:19:57;173;;;278;;
54458;SDS011;40368;49.350;8.152;2023-12-04T01:20:58;185;;;284;;
54458;SDS011;40368;49.350;8.152;2023-12-04T01:21:58;172;;;253;;
54458;SDS011;40368;49.350;8.152;2023-12-04T01:22:57;173;;;256;;
54458;SDS011;40368;49.350;8.152;2023-12-04T01:23:58;179;;;284;;
54458;SDS011;40368;49.350;8.152;2023-12-04T01:25:00;180;;;271;;
54458;SDS011;40368;49.350;8.152;2023-12-04T01:25:57;174;;;270;;
54458;SDS011;40368;49.350;8.152;2023-12-04T01:26:58;170;;;280;;
54458;SDS011;40368;49.350;8.152;2023-12-04T01:27:57;168;;;276;;
54458;SDS011;40368;49.350;8.152;2023-12-04T01:28:57;171;;;258;;
54458;SDS011;40368;49.350;8.152;2023-12-04T01:29:56;164;;;280;;
54458;SDS011;40368;49.350;8.152;2023-12-04T01:30:59;170;;;259;;
54458;SDS011;40368;49.350;8.152;2023-12-04T01:32:00;161;;;243;;
54458;SDS011;40368;49.350;8.152;2023-12-04T01:32:57;170;;;251;;
54458;SDS011;40368;49.350;8.152;2023-12-04T01:33:59;162;;;258;;
54458;SDS011;40368;49.350;8.152;2023-12-04T01:34:58;170;;;255;;
54458;SDS011;40368;49.350;8.152;2023-12-04T01:35:58;164;;;253;;
54458;SDS011;40368;49.350;8.152;2023-12-04T01:36:58;162;;;272;;
54458;SDS011;40368;49.350;8.152;2023-12-04T01:37:57;162;;;272;;
54458;SDS011;40368;49.350;8.152;2023-12-04T01:38:58;161;;;250;;
54458;SDS011;40368;49.350;8.152;2023-12-04T01:39:59;168;;;256;;
54458;SDS011;40368;49.350;8.152;2023-12-04T01:40:57;162;;;256;;
54458;SDS011;40368;49.350;8.152;2023-12-04T01:41:58;164;;;260;;
54458;SDS011;40368;49.350;8.152;2023-12-04T01:42:56;166;;;256;;
54458;SDS011;40368;49.350;8.152;2023-12-04T01:43:56;157;;;235;;
54458;SDS011;40368;49.350;8.152;2023-12-04T01:44:56;158;;;243;;
54458;SDS011;40368;49.350;8.152;2023-12-04T01:45:57;163;;;246;;
54458;SDS011;40368;49.350;8.152;2023-12-04T01:46:56;163;;;244;;
54458;SDS011;40368;49.350;8.152;2023-12-04T01:47:57;152;;;230;;
54458;SDS011;40368;49.350;8.152;2023-12-04T01:48:57;159;;;228;;
54458;SDS011;40368;49.350;8.152;2023-12-04T01:49:56;161;;;263;;
54458;SDS011;40368;49.350;8.152;2023-12-04T01:50:56;161;;;262;;
54458;SDS011;40368;49.350;8.152;2023-12-04T01:51:56;165;;;258;;
54458;SDS011;40368;49.350;8.152;2023-12-04T01:52:57;164;;;259;;
54458;SDS011;40368;49.350;8.152;2023-12-04T01:53:57;165;;;238;;
54458;SDS011;40368;49.350;8.152;2023-12-04T01:54:56;158;;;263;;
54458;SDS011;40368;49.350;8.152;2023-12-04T01:55:56;169;;;273;;
54458;SDS011;40368;49.350;8.152;2023-12-04T01:56:57;167;;;271;;
54458;SDS011;40368;49.350;8.152;2023-12-04T01:57:56;159;;;241;;
54458;SDS011;40368;49.350;8.152;2023-12-04T01:58:57;162;;;292;;
54458;SDS011;40368;49.350;8.152;2023-12-04T01:59:56;160;;;272;;
54458;SDS011;40368;49.350;8.152;2023-12-04T02:00:56;161;;;250;;
54458;SDS011;40368;49.350;8.152;2023-12-04T02:01:56;159;;;246;;
54458;SDS011;40368;49.350;8.152;2023-12-04T02:03:57;163;;;250;;
54458;SDS011;40368;49.350;8.152;2023-12-04T02:04:57;156;;;250;;
54458;SDS011;40368;49.350;8.152;2023-12-04T02:05:56;169;;;267;;
54458;SDS011;40368;49.350;8.152;2023-12-04T02:06:57;172;;;300;;
54458;SDS011;40368;49.350;8.152;2023-12-04T02:07:56;168;;;285;;
54458;SDS011;40368;49.350;8.152;2023-12-04T02:08:57;165;;;257;;
54458;SDS011;40368;49.350;8.152;2023-12-04T02:09:56;165;;;265;;
54458;SDS011;40368;49.350;8.152;2023-12-04T02:10:56;172;;;274;;
54458;SDS011;40368;49.350;8.152;2023-12-04T02:11:56;172;;;286;;
54458;SDS011;40368;49.350;8.152;2023-12-04T02:12:56;175;;;292;;
54458;SDS011;40368;49.350;8.152;2023-12-04T02:13:56;168;;;258;;
54458;SDS011;40368;49.350;8.152;2023-12-04T02:14:57;169;;;289;;
54458;SDS011;40368;49.350;8.152;2023-12-04T02:15:56;173;;;297;;
54458;SDS011;40368;49.350;8.152;2023-12-04T02:16:56;172;;;276;;
54458;SDS011;40368;49.350;8.152;2023-12-04T02:17:56;176;;;289;;
54458;SDS011;40368;49.350;8.152;2023-12-04T02:18:57;180;;;308;;
54458;SDS011;40368;49.350;8.152;2023-12-04T02:19:57;167;;;271;;
54458;SDS011;40368;49.350;8.152;2023-12-04T02:20:56;171;;;302;;
54458;SDS011;40368;49.350;8.152;2023-12-04T02:21:56;187;;;305;;
54458;SDS011;40368;49.350;8.152;2023-12-04T02:22:56;175;;;282;;
54458;SDS011;40368;49.350;8.152;2023-12-04T02:23:57;176;;;311;;
54458;SDS011;40368;49.350;8.152;2023-12-04T02:24:57;171;;;302;;
54458;SDS011;40368;49.350;8.152;2023-12-04T02:25:58;176;;;296;;
54458;SDS011;40368;49.350;8.152;2023-12-04T02:26:58;181;;;306;;
54458;SDS011;40368;49.350;8.152;2023-12-04T02:27:58;187;;;326;;
54458;SDS011;40368;49.350;8.152;2023-12-04T02:28:58;179;;;307;;
54458;SDS011;40368;49.350;8.152;2023-12-04T02:29:58;183;;;318;;
54458;SDS011;40368;49.350;8.152;2023-12-04T02:30:56;178;;;298;;
54458;SDS011;40368;49.350;8.152;2023-12-04T02:31:56;176;;;303;;
54458;SDS011;40368;49.350;8.152;2023-12-04T02:32:57;180;;;313;;
54458;SDS011;40368;49.350;8.152;2023-12-04T02:33:56;181;;;302;;
54458;SDS011;40368;49.350;8.152;2023-12-04T02:34:56;181;;;308;;
54458;SDS011;40368;49.350;8.152;2023-12-04T02:35:57;181;;;338;;
54458;SDS011;40368;49.350;8.152;2023-12-04T02:36:56;179;;;302;;
54458;SDS011;40368;49.350;8.152;2023-12-04T02:37:56;178;;;307;;
54458;SDS011;40368;49.350;8.152;2023-12-04T02:38:56;182;;;293;;
54458;SDS011;40368;49.350;8.152;2023-12-04T02:39:57;181;;;303;;
54458;SDS011;40368;49.350;8.152;2023-12-04T02:40:57;175;;;311;;
54458;SDS011;40368;49.350;8.152;2023-12-04T02:41:57;174;;;301;;
54458;SDS011;40368;49.350;8.152;2023-12-04T02:42:57;170;;;291;;
54458;SDS011;40368;49.350;8.152;2023-12-04T02:43:56;168;;;273;;
54458;SDS011;40368;49.350;8.152;2023-12-04T02:44:56;163;;;259;;
54458;SDS011;40368;49.350;8.152;2023-12-04T02:45:57;172;;;301;;
54458;SDS011;40368;49.350;8.152;2023-12-04T02:46:57;174;;;272;;
54458;SDS011;40368;49.350;8.152;2023-12-04T02:47:57;174;;;277;;
54458;SDS011;40368;49.350;8.152;2023-12-04T02:48:56;143;;;238;;
54458;SDS011;40368;49.350;8.152;2023-12-04T02:49:57;158;;;266;;
54458;SDS011;40368;49.350;8.152;2023-12-04T02:50:56;173;;;271;;
54458;SDS011;40368;49.350;8.152;2023-12-04T02:51:57;170;;;282;;
54458;SDS011;40368;49.350;8.152;2023-12-04T02:52:56;163;;;271;;
54458;SDS011;40368;49.350;8.152;2023-12-04T02:53:56;167;;;288;;
54458;SDS011;40368;49.350;8.152;2023-12-04T02:54:57;156;;;280;;
54458;SDS011;40368;49.350;8.152;2023-12-04T02:55:57;158;;;242;;
54458;SDS011;40368;49.350;8.152;2023-12-04T02:56:56;165;;;270;;
54458;SDS011;40368;49.350;8.152;2023-12-04T02:57:57;156;;;257;;
54458;SDS011;40368;49.350;8.152;2023-12-04T02:58:56;160;;;257;;
54458;SDS011;40368;49.350;8.152;2023-12-04T02:59:57;162;;;266;;
54458;SDS011;40368;49.350;8.152;2023-12-04T03:00:56;147;;;248;;
54458;SDS011;40368;49.350;8.152;2023-12-04T03:01:57;147;;;243;;
54458;SDS011;40368;49.350;8.152;2023-12-04T03:02:57;151;;;237;;
54458;SDS011;40368;49.350;8.152;2023-12-04T03:03:56;159;;;257;;
54458;SDS011;40368;49.350;8.152;2023-12-04T03:04:57;155;;;232;;
54458;SDS011;40368;49.350;8.152;2023-12-04T03:05:56;154;;;259;;
54458;SDS011;40368;49.350;8.152;2023-12-04T03:06:57;150;;;247;;
54458;SDS011;40368;49.350;8.152;2023-12-04T03:07:57;149;;;228;;
54458;SDS011;40368;49.350;8.152;2023-12-04T03:08:56;144;;;231;;
54458;SDS011;40368;49.350;8.152;2023-12-04T03:09:56;150;;;232;;
54458;SDS011;40368;49.350;8.152;2023-12-04T03:10:56;142;;;227;;
54458;SDS011;40368;49.350;8.152;2023-12-04T03:11:57;143;;;210;;
54458;SDS011;40368;49.350;8.152;2023-12-04T03:12:57;139;;;217;;
54458;SDS011;40368;49.350;8.152;2023-12-04T03:13:57;147;;;236;;
54458;SDS011;40368;49.350;8.152;2023-12-04T03:14:56;148;;;238;;
54458;SDS011;40368;49.350;8.152;2023-12-04T03:15:57;147;;;215;;
54458;SDS011;40368;49.350;8.152;2023-12-04T03:16:57;150;;;248;;
54458;SDS011;40368;49.350;8.152;2023-12-04T03:17:58;145;;;223;;
54458;SDS011;40368;49.350;8.152;2023-12-04T03:18:56;148;;;218;;
54458;SDS011;40368;49.350;8.152;2023-12-04T03:19:57;140;;;219;;
54458;SDS011;40368;49.350;8.152;2023-12-04T03:20:56;150;;;221;;
54458;SDS011;40368;49.350;8.152;2023-12-04T03:21:56;146;;;220;;
54458;SDS011;40368;49.350;8.152;2023-12-04T03:22:56;109;;;208;;
54458;SDS011;40368;49.350;8.152;2023-12-04T03:23:57;152;;;240;;
54458;SDS011;40368;49.350;8.152;2023-12-04T03:24:57;147;;;241;;
54458;SDS011;40368;49.350;8.152;2023-12-04T03:25:57;139;;;219;;
54458;SDS011;40368;49.350;8.152;2023-12-04T03:26:57;136;;;221;;
54458;SDS011;40368;49.350;8.152;2023-12-04T03:27:57;150;;;244;;
54458;SDS011;40368;49.350;8.152;2023-12-04T03:28:57;141;;;214;;
54458;SDS011;40368;49.350;8.152;2023-12-04T03:29:57;145;;;215;;
54458;SDS011;40368;49.350;8.152;2023-12-04T03:30:57;145;;;225;;
54458;SDS011;40368;49.350;8.152;2023-12-04T03:31:57;143;;;220;;
54458;SDS011;40368;49.350;8.152;2023-12-04T03:32:57;152;;;230;;
54458;SDS011;40368;49.350;8.152;2023-12-04T03:33:56;145;;;226;;
54458;SDS011;40368;49.350;8.152;2023-12-04T03:34:57;151;;;231;;
54458;SDS011;40368;49.350;8.152;2023-12-04T03:35:58;145;;;217;;
54458;SDS011;40368;49.350;8.152;2023-12-04T03:36:56;148;;;236;;
54458;SDS011;40368;49.350;8.152;2023-12-04T03:37:56;148;;;229;;
54458;SDS011;40368;49.350;8.152;2023-12-04T03:38:57;152;;;246;;
54458;SDS011;40368;49.350;8.152;2023-12-04T03:39:56;157;;;250;;
54458;SDS011;40368;49.350;8.152;2023-12-04T03:40:57;149;;;252;;
54458;SDS011;40368;49.350;8.152;2023-12-04T03:41:57;146;;;243;;
54458;SDS011;40368;49.350;8.152;2023-12-04T03:42:56;151;;;241;;
54458;SDS011;40368;49.350;8.152;2023-12-04T03:43:56;140;;;221;;
54458;SDS011;40368;49.350;8.152;2023-12-04T03:44:56;152;;;268;;
54458;SDS011;40368;49.350;8.152;2023-12-04T03:45:56;149;;;237;;
54458;SDS011;40368;49.350;8.152;2023-12-04T03:46:56;146;;;233;;
54458;SDS011;40368;49.350;8.152;2023-12-04T03:47:56;145;;;230;;
54458;SDS011;40368;49.350;8.152;2023-12-04T03:48:56;147;;;220;;
54458;SDS011;40368;49.350;8.152;2023-12-04T03:49:56;143;;;232;;
54458;SDS011;40368;49.350;8.152;2023-12-04T03:50:56;146;;;238;;
54458;SDS011;40368;49.350;8.152;2023-12-04T03:51:56;150;;;224;;
54458;SDS011;40368;49.350;8.152;2023-12-04T03:52:57;153;;;229;;
54458;SDS011;40368;49.350;8.152;2023-12-04T03:53:57;146;;;231;;
54458;SDS011;40368;49.350;8.152;2023-12-04T03:54:56;142;;;216;;
54458;SDS011;40368;49.350;8.152;2023-12-04T03:55:57;149;;;237;;
54458;SDS011;40368;49.350;8.152;2023-12-04T03:56:57;145;;;222;;
54458;SDS011;40368;49.350;8.152;2023-12-04T03:57:57;150;;;246;;
54458;SDS011;40368;49.350;8.152;2023-12-04T03:58:56;146;;;238;;
54458;SDS011;40368;49.350;8.152;2023-12-04T03:59:56;146;;;231;;
54458;SDS011;40368;49.350;8.152;2023-12-04T04:00:56;141;;;224;;
54458;SDS011;40368;49.350;8.152;2023-12-04T04:01:56;143;;;229;;
54458;SDS011;40368;49.350;8.152;2023-12-04T04:02:56;136;;;217;;
54458;SDS011;40368;49.350;8.152;2023-12-04T04:03:56;139;;;221;;
54458;SDS011;40368;49.350;8.152;2023-12-04T04:04:56;139;;;226;;
54458;SDS011;40368;49.350;8.152;2023-12-04T04:05:56;151;;;228;;
54458;SDS011;40368;49.350;8.152;2023-12-04T04:06:57;145;;;233;;
54458;SDS011;40368;49.350;8.152;2023-12-04T04:07:56;140;;;222;;
54458;SDS011;40368;49.350;8.152;2023-12-04T04:08:57;142;;;220;;
54458;SDS011;40368;49.350;8.152;2023-12-04T04:09:57;147;;;229;;
54458;SDS011;40368;49.350;8.152;2023-12-04T04:10:56;146;;;230;;
54458;SDS011;40368;49.350;8.152;2023-12-04T04:11:57;146;;;218;;
54458;SDS011;40368;49.350;8.152;2023-12-04T04:12:56;142;;;234;;
54458;SDS011;40368;49.350;8.152;2023-12-04T04:13:57;145;;;224;;
54458;SDS011;40368;49.350;8.152;2023-12-04T04:14:57;147;;;228;;
54458;SDS011;40368;49.350;8.152;2023-12-04T04:15:56;151;;;259;;
54458;SDS011;40368;49.350;8.152;2023-12-04T04:16:56;147;;;243;;
54458;SDS011;40368;49.350;8.152;2023-12-04T04:17:56;153;;;296;;
54458;SDS011;40368;49.350;8.152;2023-12-04T04:18:56;153;;;309;;
54458;SDS011;40368;49.350;8.152;2023-12-04T04:19:56;153;;;281;;
54458;SDS011;40368;49.350;8.152;2023-12-04T04:20:56;153;;;269;;
54458;SDS011;40368;49.350;8.152;2023-12-04T04:21:56;152;;;274;;
54458;SDS011;40368;49.350;8.152;2023-12-04T04:22:56;151;;;255;;
54458;SDS011;40368;49.350;8.152;2023-12-04T04:23:57;149;;;251;;
54458;SDS011;40368;49.350;8.152;2023-12-04T04:24:56;151;;;284;;
54458;SDS011;40368;49.350;8.152;2023-12-04T04:25:56;153;;;284;;
54458;SDS011;40368;49.350;8.152;2023-12-04T04:26:56;150;;;271;;
54458;SDS011;40368;49.350;8.152;2023-12-04T04:27:56;147;;;244;;
54458;SDS011;40368;49.350;8.152;2023-12-04T04:28:57;137;;;223;;
54458;SDS011;40368;49.350;8.152;2023-12-04T04:29:56;145;;;240;;
54458;SDS011;40368;49.350;8.152;2023-12-04T04:30:56;145;;;232;;
54458;SDS011;40368;49.350;8.152;2023-12-04T04:31:56;140;;;231;;
54458;SDS011;40368;49.350;8.152;2023-12-04T04:32:56;137;;;224;;
54458;SDS011;40368;49.350;8.152;2023-12-04T04:33:56;137;;;211;;
54458;SDS011;40368;49.350;8.152;2023-12-04T04:34:56;146;;;230;;
54458;SDS011;40368;49.350;8.152;2023-12-04T04:35:56;145;;;225;;
54458;SDS011;40368;49.350;8.152;2023-12-04T04:36:56;138;;;209;;
54458;SDS011;40368;49.350;8.152;2023-12-04T04:37:57;144;;;238;;
54458;SDS011;40368;49.350;8.152;2023-12-04T04:38:57;138;;;205;;
54458;SDS011;40368;49.350;8.152;2023-12-04T04:39:56;136;;;220;;
54458;SDS011;40368;49.350;8.152;2023-12-04T04:40:56;142;;;215;;
54458;SDS011;40368;49.350;8.152;2023-12-04T04:41:56;127;;;209;;
54458;SDS011;40368;49.350;8.152;2023-12-04T04:42:57;145;;;228;;
54458;SDS011;40368;49.350;8.152;2023-12-04T04:43:56;151;;;227;;
54458;SDS011;40368;49.350;8.152;2023-12-04T04:44:56;150;;;219;;
54458;SDS011;40368;49.350;8.152;2023-12-04T04:45:56;151;;;220;;
54458;SDS011;40368;49.350;8.152;2023-12-04T04:46:57;154;;;235;;
54458;SDS011;40368;49.350;8.152;2023-12-04T04:47:56;148;;;228;;
54458;SDS011;40368;49.350;8.152;2023-12-04T04:48:56;148;;;244;;
54458;SDS011;40368;49.350;8.152;2023-12-04T04:49:56;156;;;260;;
54458;SDS011;40368;49.350;8.152;2023-12-04T04:50:56;146;;;228;;
54458;SDS011;40368;49.350;8.152;2023-12-04T04:51:57;133;;;210;;
54458;SDS011;40368;49.350;8.152;2023-12-04T04:52:56;146;;;222;;
54458;SDS011;40368;49.350;8.152;2023-12-04T04:53:57;141;;;220;;
54458;SDS011;40368;49.350;8.152;2023-12-04T04:54:56;136;;;226;;
54458;SDS011;40368;49.350;8.152;2023-12-04T04:55:57;140;;;234;;
54458;SDS011;40368;49.350;8.152;2023-12-04T04:56:56;133;;;207;;
54458;SDS011;40368;49.350;8.152;2023-12-04T04:57:56;135;;;226;;
54458;SDS011;40368;49.350;8.152;2023-12-04T04:58:56;137;;;232;;
54458;SDS011;40368;49.350;8.152;2023-12-04T04:59:56;140;;;217;;
54458;SDS011;40368;49.350;8.152;2023-12-04T05:00:56;136;;;219;;
54458;SDS011;40368;49.350;8.152;2023-12-04T05:01:56;127;;;232;;
54458;SDS011;40368;49.350;8.152;2023-12-04T05:02:56;141;;;233;;
54458;SDS011;40368;49.350;8.152;2023-12-04T05:03:56;138;;;231;;
54458;SDS011;40368;49.350;8.152;2023-12-04T05:04:56;138;;;232;;
54458;SDS011;40368;49.350;8.152;2023-12-04T05:05:56;140;;;235;;
54458;SDS011;40368;49.350;8.152;2023-12-04T05:06:56;137;;;235;;
54458;SDS011;40368;49.350;8.152;2023-12-04T05:07:56;137;;;205;;
54458;SDS011;40368;49.350;8.152;2023-12-04T05:08:56;131;;;204;;
54458;SDS011;40368;49.350;8.152;2023-12-04T05:09:58;137;;;217;;
54458;SDS011;40368;49.350;8.152;2023-12-04T05:10:56;133;;;223;;
54458;SDS011;40368;49.350;8.152;2023-12-04T05:11:56;136;;;201;;
54458;SDS011;40368;49.350;8.152;2023-12-04T05:12:56;137;;;212;;
54458;SDS011;40368;49.350;8.152;2023-12-04T05:13:56;132;;;209;;
54458;SDS011;40368;49.350;8.152;2023-12-04T05:14:56;132;;;204;;
54458;SDS011;40368;49.350;8.152;2023-12-04T05:15:56;126;;;207;;
54458;SDS011;40368;49.350;8.152;2023-12-04T05:16:56;130;;;221;;
54458;SDS011;40368;49.350;8.152;2023-12-04T05:17:56;139;;;223;;
54458;SDS011;40368;49.350;8.152;2023-12-04T05:18:56;133;;;216;;
54458;SDS011;40368;49.350;8.152;2023-12-04T05:19:56;140;;;227;;
54458;SDS011;40368;49.350;8.152;2023-12-04T05:20:56;138;;;217;;
54458;SDS011;40368;49.350;8.152;2023-12-04T05:21:56;129;;;207;;
54458;SDS011;40368;49.350;8.152;2023-12-04T05:22:56;125;;;210;;
54458;SDS011;40368;49.350;8.152;2023-12-04T05:23:56;121;;;220;;
54458;SDS011;40368;49.350;8.152;2023-12-04T05:24:57;131;;;205;;
54458;SDS011;40368;49.350;8.152;2023-12-04T05:25:56;129;;;192;;
54458;SDS011;40368;49.350;8.152;2023-12-04T05:26:56;135;;;218;;
54458;SDS011;40368;49.350;8.152;2023-12-04T05:27:56;132;;;205;;
54458;SDS011;40368;49.350;8.152;2023-12-04T05:29:57;134;;;218;;
54458;SDS011;40368;49.350;8.152;2023-12-04T05:30:56;126;;;210;;
54458;SDS011;40368;49.350;8.152;2023-12-04T05:31:56;127;;;197;;
54458;SDS011;40368;49.350;8.152;2023-12-04T05:32:57;128;;;217;;
54458;SDS011;40368;49.350;8.152;2023-12-04T05:33:56;126;;;200;;
54458;SDS011;40368;49.350;8.152;2023-12-04T05:34:56;123;;;199;;
54458;SDS011;40368;49.350;8.152;2023-12-04T05:35:56;128;;;208;;
54458;SDS011;40368;49.350;8.152;2023-12-04T05:36:56;127;;;200;;
54458;SDS011;40368;49.350;8.152;2023-12-04T05:37:57;133;;;216;;
54458;SDS011;40368;49.350;8.152;2023-12-04T05:38:57;132;;;218;;
54458;SDS011;40368;49.350;8.152;2023-12-04T05:39:57;126;;;210;;
54458;SDS011;40368;49.350;8.152;2023-12-04T05:40:56;130;;;217;;
54458;SDS011;40368;49.350;8.152;2023-12-04T05:41:56;129;;;215;;
54458;SDS011;40368;49.350;8.152;2023-12-04T05:42:57;124;;;194;;
54458;SDS011;40368;49.350;8.152;2023-12-04T05:43:57;124;;;192;;
54458;SDS011;40368;49.350;8.152;2023-12-04T05:44:56;132;;;217;;
54458;SDS011;40368;49.350;8.152;2023-12-04T05:45:57;134;;;206;;
54458;SDS011;40368;49.350;8.152;2023-12-04T05:46:57;131;;;219;;
54458;SDS011;40368;49.350;8.152;2023-12-04T05:47:56;132;;;215;;
54458;SDS011;40368;49.350;8.152;2023-12-04T05:48:56;127;;;194;;
54458;SDS011;40368;49.350;8.152;2023-12-04T05:49:56;127;;;196;;
54458;SDS011;40368;49.350;8.152;2023-12-04T05:50:56;126;;;204;;
54458;SDS011;40368;49.350;8.152;2023-12-04T05:51:56;127;;;214;;
54458;SDS011;40368;49.350;8.152;2023-12-04T05:52:56;124;;;210;;
54458;SDS011;40368;49.350;8.152;2023-12-04T05:53:56;129;;;210;;
54458;SDS011;40368;49.350;8.152;2023-12-04T05:54:57;125;;;199;;
54458;SDS011;40368;49.350;8.152;2023-12-04T05:55:56;131;;;215;;
54458;SDS011;40368;49.350;8.152;2023-12-04T05:56:56;126;;;202;;
54458;SDS011;40368;49.350;8.152;2023-12-04T05:57:56;131;;;241;;
54458;SDS011;40368;49.350;8.152;2023-12-04T05:58:56;128;;;221;;
54458;SDS011;40368;49.350;8.152;2023-12-04T05:59:56;129;;;204;;
54458;SDS011;40368;49.350;8.152;2023-12-04T06:00:56;130;;;206;;
54458;SDS011;40368;49.350;8.152;2023-12-04T06:01:56;132;;;203;;
54458;SDS011;40368;49.350;8.152;2023-12-04T06:02:56;132;;;225;;
54458;SDS011;40368;49.350;8.152;2023-12-04T06:03:56;131;;;209;;
54458;SDS011;40368;49.350;8.152;2023-12-04T06:04:56;133;;;202;;
54458;SDS011;40368;49.350;8.152;2023-12-04T06:05:56;137;;;223;;
54458;SDS011;40368;49.350;8.152;2023-12-04T06:06:56;139;;;241;;
54458;SDS011;40368;49.350;8.152;2023-12-04T06:07:56;137;;;225;;
54458;SDS011;40368;49.350;8.152;2023-12-04T06:08:56;141;;;217;;
54458;SDS011;40368;49.350;8.152;2023-12-04T06:09:57;146;;;225;;
54458;SDS011;40368;49.350;8.152;2023-12-04T06:10:57;144;;;232;;
54458;SDS011;40368;49.350;8.152;2023-12-04T06:11:56;135;;;220;;
54458;SDS011;40368;49.350;8.152;2023-12-04T06:12:56;135;;;219;;
54458;SDS011;40368;49.350;8.152;2023-12-04T06:13:56;135;;;209;;
54458;SDS011;40368;49.350;8.152;2023-12-04T06:14:57;137;;;225;;